Time;durP1;ratioP1;P1;durP2;ratioP2;P2;SDS_P1;SDS_P2;PMS_P1;PMS_P2;Temp;Humidity;BMP_temperature;BMP_pressure;BME280_temperature;BME280_humidity;BME280_pressure;Samples;Min_cycle;Max_cycle;Signal;HPM_P1;HPM_P2
2022/10/22 00:02:22;;;;;;;7.68;3.92;;;;;;;17.43;61.79;100809.22;5050945;28;20037;-66
2022/10/22 00:04:50;;;;;;;6.10;4.30;;;;;;;17.40;62.05;100814.97;5050893;28;20044;-67
2022/10/22 00:07:17;;;;;;;6.47;4.18;;;;;;;17.35;61.98;100812.72;5050681;28;20491;-66
2022/10/22 00:09:44;;;;;;;10.35;4.50;;;;;;;17.35;62.48;100820.00;5049914;28;20553;-67
2022/10/22 00:12:13;;;;;;;7.82;4.32;;;;;;;17.33;62.11;100820.16;5050940;28;20051;-65
2022/10/22 00:15:05;;;;;;;7.45;4.75;;;;;;;17.30;62.40;100815.03;5050804;28;20045;-66
2022/10/22 00:17:32;;;;;;;10.80;4.72;;;;;;;17.29;62.29;100813.31;5050999;28;20545;-66
2022/10/22 00:19:58;;;;;;;6.45;4.38;;;;;;;17.28;62.58;100808.91;5050869;28;20438;-65
2022/10/22 00:22:25;;;;;;;7.32;4.72;;;;;;;17.27;62.88;100806.34;5051035;28;20033;-66
2022/10/22 00:24:53;;;;;;;9.15;4.60;;;;;;;17.26;62.79;100804.63;5050677;28;20118;-66
2022/10/22 00:27:20;;;;;;;5.82;4.60;;;;;;;17.26;62.63;100812.78;5050784;28;20045;-66
2022/10/22 00:29:47;;;;;;;7.35;4.53;;;;;;;17.27;62.58;100809.06;5050937;28;20348;-66
2022/10/22 00:32:14;;;;;;;8.35;4.50;;;;;;;17.27;62.71;100806.34;5050704;28;20037;-66
2022/10/22 00:34:42;;;;;;;7.80;4.85;;;;;;;17.27;63.12;100812.63;5050849;28;20040;-66
2022/10/22 00:37:09;;;;;;;5.05;4.40;;;;;;;17.29;63.01;100817.91;5049517;28;20041;-66
2022/10/22 00:39:35;;;;;;;6.55;4.50;;;;;;;17.29;63.03;100815.19;5050860;28;20044;-66
2022/10/22 00:42:02;;;;;;;6.28;5.18;;;;;;;17.29;63.12;100807.91;5050623;28;20091;-66
2022/10/22 00:45:03;;;;;;;8.35;5.10;;;;;;;17.29;63.10;100810.59;5050211;28;20053;-66
2022/10/22 00:47:35;;;;;;;9.48;4.72;;;;;;;17.32;62.82;100812.16;5030784;28;20585;-66
2022/10/22 00:50:09;;;;;;;8.60;4.90;;;;;;;17.34;62.85;100808.28;5030906;28;20088;-66
2022/10/22 00:52:36;;;;;;;6.85;4.53;;;;;;;17.35;63.27;100811.84;5029626;28;20096;-66
2022/10/22 00:55:03;;;;;;;8.15;5.20;;;;;;;17.37;63.07;100810.69;5036065;28;20041;-66
2022/10/22 00:57:30;;;;;;;9.43;4.60;;;;;;;17.36;63.11;100805.41;5050458;28;20045;-66
2022/10/22 00:59:57;;;;;;;9.38;4.70;;;;;;;17.34;62.89;100811.00;5054067;28;20456;-66
2022/10/22 01:02:24;;;;;;;7.57;4.82;;;;;;;17.34;63.16;100823.72;5054128;28;20095;-66
2022/10/22 01:04:52;;;;;;;10.35;4.28;;;;;;;17.30;62.86;100816.91;5053978;28;20040;-66
2022/10/22 01:07:21;;;;;;;7.78;4.55;;;;;;;17.27;62.88;100820.78;5054278;28;20142;-65
2022/10/22 01:09:53;;;;;;;9.63;4.35;;;;;;;17.22;62.93;100816.81;5054268;28;20033;-66
2022/10/22 01:12:27;;;;;;;7.03;4.68;;;;;;;17.20;62.97;100821.53;5053938;28;20033;-66
2022/10/22 01:15:33;;;;;;;8.15;5.05;;;;;;;17.18;63.13;100809.97;5052678;28;20540;-66
2022/10/22 01:18:11;;;;;;;8.60;5.13;;;;;;;17.20;63.46;100810.66;5054068;28;20044;-66
2022/10/22 01:20:59;;;;;;;8.20;5.05;;;;;;;17.21;63.42;100807.81;5054064;28;20033;-66
2022/10/22 01:23:54;;;;;;;8.40;4.75;;;;;;;17.25;63.32;100811.06;5053858;28;20537;-66
2022/10/22 01:26:32;;;;;;;9.00;5.43;;;;;;;17.26;63.17;100818.19;5053172;28;20094;-66
2022/10/22 01:29:26;;;;;;;13.85;5.60;;;;;;;17.23;63.50;100813.94;5053933;28;20033;-66
2022/10/22 01:32:03;;;;;;;11.38;5.20;;;;;;;17.20;63.28;100819.66;5053883;28;20049;-66
2022/10/22 01:34:32;;;;;;;7.80;5.10;;;;;;;17.20;63.40;100816.09;5052492;28;20049;-65
2022/10/22 01:37:01;;;;;;;9.10;5.15;;;;;;;17.20;63.37;100814.25;5053607;28;20048;-65
2022/10/22 01:39:29;;;;;;;10.00;4.65;;;;;;;17.26;63.47;100818.19;5053734;28;20040;-65
2022/10/22 01:41:56;;;;;;;8.90;4.55;;;;;;;17.28;63.63;100814.34;5053462;28;20037;-66
2022/10/22 01:44:33;;;;;;;9.55;4.50;;;;;;;17.28;63.61;100800.75;5052750;28;20063;-65
2022/10/22 01:47:32;;;;;;;7.15;4.70;;;;;;;17.29;63.51;100809.75;5053054;28;20049;-65
2022/10/22 01:50:30;;;;;;;10.05;4.53;;;;;;;17.26;63.75;100805.50;5053539;28;20047;-66
2022/10/22 01:53:04;;;;;;;6.97;4.60;;;;;;;17.24;63.38;100806.66;5053205;28;20045;-66
2022/10/22 01:55:59;;;;;;;8.10;4.57;;;;;;;17.23;63.66;100810.38;5053324;28;20402;-66
2022/10/22 01:58:44;;;;;;;9.10;5.53;;;;;;;17.24;63.71;100809.38;5053556;28;20107;-66
2022/10/22 02:01:24;;;;;;;6.87;4.40;;;;;;;17.23;63.63;100805.78;5053304;28;20037;-66
2022/10/22 02:04:21;;;;;;;7.97;4.75;;;;;;;17.22;63.81;100795.09;5053234;28;20041;-66
2022/10/22 02:06:49;;;;;;;;;;;;;;;17.25;63.41;100805.63;5051498;28;20041;-65
2022/10/22 02:09:20;;;;;;;7.30;4.50;;;;;;;17.28;63.41;100799.91;5052971;28;19921;-67
2022/10/22 02:11:49;;;;;;;9.38;4.38;;;;;;;17.26;63.51;100791.06;5052918;28;20049;-65
2022/10/22 02:14:19;;;;;;;6.90;5.10;;;;;;;17.24;63.58;100790.38;5053352;28;20380;-66
2022/10/22 02:16:48;;;;;;;8.38;4.90;;;;;;;17.23;63.38;100804.94;5052499;28;20400;-65
2022/10/22 02:19:21;;;;;;;7.85;4.57;;;;;;;17.20;63.62;100799.81;5053107;28;20126;-65
2022/10/22 02:21:48;;;;;;;8.27;4.13;;;;;;;17.17;63.61;100792.84;5052741;28;20033;-66
2022/10/22 02:24:16;;;;;;;8.98;4.78;;;;;;;17.17;63.35;100791.97;5053146;28;20049;-66
2022/10/22 02:27:08;;;;;;;10.73;4.85;;;;;;;17.13;63.66;100795.00;5052270;28;20253;-66
2022/10/22 02:30:02;;;;;;;8.50;4.45;;;;;;;17.12;63.31;100806.88;5042509;28;20102;-67
2022/10/22 02:32:41;;;;;;;12.52;5.13;;;;;;;17.10;63.47;100802.59;5047044;28;20079;-67
2022/10/22 02:35:12;;;;;;;8.23;4.40;;;;;;;17.05;63.58;100808.44;5052088;28;20041;-67
2022/10/22 02:37:40;;;;;;;9.68;4.70;;;;;;;17.04;63.38;100803.16;5052680;28;20512;-67
2022/10/22 02:40:08;;;;;;;7.60;4.95;;;;;;;17.00;63.66;100801.75;5052606;28;20499;-67
2022/10/22 02:42:36;;;;;;;7.47;4.93;;;;;;;16.99;63.66;100800.91;5034436;28;20045;-66
2022/10/22 02:45:05;;;;;;;8.90;4.93;;;;;;;16.99;63.70;100794.63;5051760;28;20052;-65
2022/10/22 02:47:31;;;;;;;8.43;4.60;;;;;;;16.98;63.38;100801.91;5052088;28;20411;-67
2022/10/22 02:49:58;;;;;;;8.75;4.40;;;;;;;16.95;63.70;100799.50;5052450;28;20399;-66
2022/10/22 02:52:24;;;;;;;9.27;4.90;;;;;;;16.94;63.80;100800.50;5051988;28;20098;-66
2022/10/22 02:54:52;;;;;;;10.45;5.30;;;;;;;16.91;63.80;100800.81;5052269;28;20049;-66
2022/10/22 02:57:18;;;;;;;8.70;4.93;;;;;;;16.89;63.89;100800.09;5052121;28;20067;-66
2022/10/22 02:59:46;;;;;;;11.73;5.20;;;;;;;16.91;63.60;100806.25;5052120;28;20041;-67
2022/10/22 03:02:12;;;;;;;10.15;5.18;;;;;;;16.91;63.77;100803.53;5052053;28;20041;-66
2022/10/22 03:04:43;;;;;;;9.43;4.90;;;;;;;16.93;63.72;100798.81;5052083;28;20095;-66
2022/10/22 03:07:10;;;;;;;8.10;4.57;;;;;;;16.95;63.97;100804.06;5051711;28;20053;-67
2022/10/22 03:09:37;;;;;;;9.77;5.22;;;;;;;16.91;63.60;100808.09;5052159;28;20048;-67
2022/10/22 03:12:04;;;;;;;9.13;5.20;;;;;;;16.87;63.83;100801.28;5053027;27;20110;-67
2022/10/22 03:14:31;;;;;;;10.00;5.15;;;;;;;16.83;63.94;100811.56;5052101;28;20483;-67
2022/10/22 03:16:58;;;;;;;8.82;5.05;;;;;;;16.80;63.97;100815.44;5051543;28;20099;-66
2022/10/22 03:19:24;;;;;;;6.20;4.55;;;;;;;16.78;63.89;100806.59;5050953;28;20076;-66
2022/10/22 03:21:58;;;;;;;8.02;4.53;;;;;;;16.77;63.58;100813.03;5051007;28;20548;-66
2022/10/22 03:24:33;;;;;;;7.78;4.90;;;;;;;16.76;63.74;100805.88;5051716;28;20572;-66
2022/10/22 03:26:59;;;;;;;10.40;5.15;;;;;;;16.76;63.78;100813.16;5051374;28;20395;-66
2022/10/22 03:29:26;;;;;;;9.02;4.50;;;;;;;16.76;63.62;100824.03;5051765;28;20041;-66
2022/10/22 03:31:53;;;;;;;7.72;4.65;;;;;;;16.75;63.80;100825.03;5051412;28;20049;-66
2022/10/22 03:34:21;;;;;;;8.50;4.45;;;;;;;16.73;63.86;100833.31;5051698;28;20045;-67
2022/10/22 03:36:48;;;;;;;7.70;4.90;;;;;;;16.72;63.81;100833.47;5051082;28;20727;-66
2022/10/22 03:39:18;;;;;;;10.10;4.55;;;;;;;16.71;64.01;100834.47;5051542;28;20487;-67
2022/10/22 03:41:45;;;;;;;12.88;4.32;;;;;;;16.70;63.89;100835.47;5051504;28;20041;-66
2022/10/22 03:44:14;;;;;;;12.20;5.03;;;;;;;16.68;63.83;100835.59;5050490;28;20045;-67
2022/10/22 03:46:41;;;;;;;10.95;5.38;;;;;;;16.68;63.63;100829.34;5050665;28;20094;-67
2022/10/22 03:49:07;;;;;;;7.75;4.93;;;;;;;16.64;63.86;100833.31;5051322;28;20434;-66
2022/10/22 03:51:34;;;;;;;9.82;5.10;;;;;;;16.64;64.01;100844.16;5051115;28;20036;-67
2022/10/22 03:54:05;;;;;;;13.85;5.00;;;;;;;16.62;63.73;100841.59;5049984;28;20052;-67
2022/10/22 03:56:32;;;;;;;9.82;4.57;;;;;;;16.62;63.68;100846.16;5050631;28;20091;-66
2022/10/22 03:59:00;;;;;;;9.88;4.88;;;;;;;16.61;64.16;100848.03;5051160;28;20037;-67
2022/10/22 04:01:28;;;;;;;9.60;4.90;;;;;;;16.60;64.02;100856.31;5051015;28;20049;-65
2022/10/22 04:03:59;;;;;;;10.52;4.97;;;;;;;16.59;63.94;100854.59;5051125;28;20036;-70
2022/10/22 04:06:28;;;;;;;9.98;4.32;;;;;;;16.59;63.97;100858.16;5049235;28;20090;-66
2022/10/22 04:08:54;;;;;;;9.93;5.13;;;;;;;16.59;64.06;100862.72;5051157;28;20174;-66
2022/10/22 04:11:21;;;;;;;7.93;4.35;;;;;;;16.57;63.92;100864.72;5050975;28;20556;-66
2022/10/22 04:13:48;;;;;;;9.15;4.65;;;;;;;16.56;64.34;100861.16;5049685;28;20037;-67
2022/10/22 04:16:20;;;;;;;10.93;4.65;;;;;;;16.57;64.19;100867.44;5050503;28;20290;-66
2022/10/22 04:18:49;;;;;;;11.65;4.55;;;;;;;16.56;63.99;100863.88;5050666;28;20045;-66
2022/10/22 04:21:18;;;;;;;7.38;4.43;;;;;;;16.58;64.15;100867.28;5050883;28;20056;-66
2022/10/22 04:23:47;;;;;;;6.10;4.55;;;;;;;16.58;63.91;100870.00;5050885;28;20099;-66
2022/10/22 04:26:14;;;;;;;8.48;4.57;;;;;;;16.58;63.90;100871.88;5050061;28;20503;-66
2022/10/22 04:28:41;;;;;;;9.75;5.00;;;;;;;16.60;64.16;100869.84;5050822;28;20533;-66
2022/10/22 04:31:13;;;;;;;7.63;4.88;;;;;;;16.62;64.38;100873.28;5050667;28;20252;-65
2022/10/22 04:33:43;;;;;;;7.15;5.00;;;;;;;16.63;64.02;100875.00;5053793;28;20049;-66
2022/10/22 04:36:13;;;;;;;10.82;4.97;;;;;;;16.64;64.27;100879.41;5053004;28;20079;-66
2022/10/22 04:38:40;;;;;;;11.52;4.97;;;;;;;16.64;64.38;100872.13;5054883;28;20064;-66
2022/10/22 04:41:12;;;;;;;12.43;5.57;;;;;;;16.65;64.43;100875.69;5054931;28;20438;-66
2022/10/22 04:43:39;;;;;;;12.27;5.50;;;;;;;16.65;64.23;100867.56;5054772;28;20045;-65
2022/10/22 04:46:08;;;;;;;11.50;5.05;;;;;;;16.64;64.61;100873.97;5053115;28;20053;-65
2022/10/22 04:48:35;;;;;;;9.27;5.20;;;;;;;16.64;64.47;100871.28;5053337;28;20049;-66
2022/10/22 04:51:03;;;;;;;10.07;5.25;;;;;;;16.64;64.17;100873.97;5054747;28;20441;-66
2022/10/22 04:53:29;;;;;;;9.18;5.10;;;;;;;16.64;64.41;100872.13;5054443;28;20442;-66
2022/10/22 04:56:08;;;;;;;9.18;4.85;;;;;;;16.64;64.51;100873.97;5053321;28;20055;-66
2022/10/22 04:58:35;;;;;;;9.63;5.05;;;;;;;16.64;64.25;100876.69;5054564;28;20049;-65
2022/10/22 05:01:12;;;;;;;10.70;5.15;;;;;;;16.64;64.65;100873.97;5054538;28;20045;-67
2022/10/22 05:03:39;;;;;;;7.15;4.32;;;;;;;16.62;64.27;100884.97;5054414;28;20069;-66
2022/10/22 05:06:07;;;;;;;7.15;4.55;;;;;;;16.61;64.41;100890.53;5053656;28;20483;-67
2022/10/22 05:08:34;;;;;;;8.50;5.00;;;;;;;16.60;64.13;100886.13;5054304;28;20458;-66
2022/10/22 05:11:08;;;;;;;22.38;5.05;;;;;;;16.59;64.32;100890.69;5054190;28;20093;-68
2022/10/22 05:13:35;;;;;;;10.43;5.35;;;;;;;16.58;64.15;100891.69;5054396;28;20088;-66
2022/10/22 05:16:01;;;;;;;15.25;5.43;;;;;;;16.59;64.35;100887.13;5053821;28;20057;-66
2022/10/22 05:18:28;;;;;;;14.50;5.90;;;;;;;16.56;64.50;100891.00;5054066;28;20104;-67
2022/10/22 05:20:54;;;;;;;10.98;4.97;;;;;;;16.56;64.14;100890.13;5053996;28;20487;-67
2022/10/22 05:23:21;;;;;;;9.43;5.03;;;;;;;16.57;64.38;100886.41;5053895;28;20044;-66
2022/10/22 05:25:48;;;;;;;14.23;4.88;;;;;;;16.58;64.31;100886.28;5052553;28;20356;-66
2022/10/22 05:28:14;;;;;;;13.60;4.70;;;;;;;16.58;64.47;100888.97;5053823;28;20593;-67
2022/10/22 05:30:41;;;;;;;12.88;5.03;;;;;;;16.59;64.27;100887.13;5053924;28;20453;-65
2022/10/22 05:33:07;;;;;;;8.50;4.97;;;;;;;16.59;64.47;100889.84;5052537;28;20094;-66
2022/10/22 05:35:38;;;;;;;12.77;5.53;;;;;;;16.59;64.74;100892.56;5053503;28;20045;-66
2022/10/22 05:38:05;;;;;;;11.05;4.50;;;;;;;16.59;64.55;100895.25;5053769;28;20041;-66
2022/10/22 05:40:31;;;;;;;8.77;4.68;;;;;;;16.61;64.68;100893.25;5052540;28;20048;-66
2022/10/22 05:42:58;;;;;;;6.93;4.32;;;;;;;16.62;64.65;100895.81;5053476;28;20099;-67
2022/10/22 05:45:25;;;;;;;7.95;5.40;;;;;;;16.64;64.61;100901.09;5052637;28;20045;-66
2022/10/22 05:47:52;;;;;;;11.65;5.00;;;;;;;16.66;64.89;100899.13;5053637;28;20049;-67
2022/10/22 05:50:18;;;;;;;8.70;4.68;;;;;;;16.69;64.94;100904.25;5053623;28;20095;-66
2022/10/22 05:52:45;;;;;;;10.05;4.85;;;;;;;16.71;65.05;100907.69;5053315;28;20087;-66
2022/10/22 05:55:12;;;;;;;10.85;4.93;;;;;;;16.73;65.17;100911.94;5053211;28;20041;-66
2022/10/22 05:57:39;;;;;;;7.97;4.53;;;;;;;16.77;64.96;100912.50;5053708;28;20540;-67
2022/10/22 06:00:06;;;;;;;14.95;4.50;;;;;;;16.80;65.16;100912.22;5051803;28;20045;-65
2022/10/22 06:02:38;;;;;;;9.10;5.38;;;;;;;16.83;64.90;100922.78;5053205;28;20399;-65
2022/10/22 06:05:08;;;;;;;8.07;4.90;;;;;;;16.86;64.85;100925.19;5053210;28;20545;-66
2022/10/22 06:07:35;;;;;;;8.25;4.30;;;;;;;16.89;64.84;100933.03;5032828;28;20053;-66
2022/10/22 06:10:01;;;;;;;8.55;4.40;;;;;;;16.91;64.90;100927.47;5032073;28;20091;-66
2022/10/22 06:12:28;;;;;;;10.93;5.05;;;;;;;16.92;64.85;100930.03;5048074;28;20040;-66
2022/10/22 06:14:56;;;;;;;9.93;4.68;;;;;;;16.93;64.89;100937.16;5052100;28;20053;-66
2022/10/22 06:17:22;;;;;;;8.32;5.20;;;;;;;16.94;64.97;100938.88;5052886;28;20044;-68
2022/10/22 06:19:49;;;;;;;12.85;5.35;;;;;;;16.95;64.89;100935.16;5051604;28;20600;-66
2022/10/22 06:22:15;;;;;;;9.80;4.65;;;;;;;16.96;64.65;100941.44;5052300;28;20049;-65
2022/10/22 06:24:43;;;;;;;7.25;4.45;;;;;;;16.97;64.89;100954.84;5052830;28;20106;-65
2022/10/22 06:27:10;;;;;;;9.45;4.80;;;;;;;16.95;64.85;100943.28;5051571;28;20075;-66
2022/10/22 06:29:37;;;;;;;15.88;3.97;;;;;;;16.95;64.86;100948.72;5052763;28;20055;-66
2022/10/22 06:32:04;;;;;;;16.85;4.60;;;;;;;16.96;64.96;100947.72;5052185;28;20090;-66
2022/10/22 06:34:30;;;;;;;10.65;4.30;;;;;;;16.98;65.05;100956.56;5052634;28;20495;-66
2022/10/22 06:36:57;;;;;;;9.75;4.57;;;;;;;16.99;65.11;100962.84;5052648;28;20041;-66
2022/10/22 06:39:23;;;;;;;8.90;4.63;;;;;;;17.00;64.54;100968.13;5052635;28;20102;-66
2022/10/22 06:41:50;;;;;;;8.45;4.47;;;;;;;17.01;64.82;100972.53;5052423;28;20099;-66
2022/10/22 06:44:21;;;;;;;8.82;4.13;;;;;;;17.00;64.80;100976.25;5052272;28;20091;-66
2022/10/22 06:46:51;;;;;;;9.07;4.32;;;;;;;17.01;65.06;100977.97;5052598;28;20139;-66
2022/10/22 06:49:19;;;;;;;13.75;4.70;;;;;;;17.03;64.94;100986.81;5052397;28;20045;-66
2022/10/22 06:51:49;;;;;;;10.02;4.75;;;;;;;17.03;64.66;100989.53;5051618;28;20087;-66
2022/10/22 06:54:20;;;;;;;12.82;4.60;;;;;;;17.04;64.52;100993.97;5052502;28;20045;-66
2022/10/22 06:56:48;;;;;;;13.65;4.30;;;;;;;17.04;64.96;100996.66;5051399;28;20087;-66
2022/10/22 06:59:15;;;;;;;7.28;3.90;;;;;;;17.04;64.85;101002.09;5052146;28;20048;-66
2022/10/22 07:01:41;;;;;;;6.80;4.00;;;;;;;17.06;64.70;100999.22;5051889;28;20110;-66
2022/10/22 07:04:10;;;;;;;9.75;4.05;;;;;;;17.08;65.07;101011.66;5051093;28;20088;-65
2022/10/22 07:06:37;;;;;;;7.22;4.22;;;;;;;17.10;64.78;101015.09;5052134;28;20037;-65
2022/10/22 07:09:03;;;;;;;10.38;4.13;;;;;;;17.12;65.06;101018.53;5050862;28;20052;-65
2022/10/22 07:11:38;;;;;;;14.27;3.95;;;;;;;17.16;65.03;101019.09;5051947;28;20115;-65
2022/10/22 07:14:05;;;;;;;8.27;4.10;;;;;;;17.20;65.14;101025.09;5052018;28;20056;-66
2022/10/22 07:16:42;;;;;;;9.02;3.88;;;;;;;17.24;65.42;101016.50;5112210;27;425545;-66
2022/10/22 07:19:08;;;;;;;11.80;4.05;;;;;;;17.26;65.31;101019.91;5089903;28;20029;-66
2022/10/22 07:21:35;;;;;;;8.25;3.70;;;;;;;17.31;65.44;101024.91;5089972;28;20032;-67
2022/10/22 07:24:03;;;;;;;9.82;3.42;;;;;;;17.35;65.39;101029.03;5089855;28;20040;-66
2022/10/22 07:26:31;;;;;;;11.15;4.25;;;;;;;17.40;65.48;101032.16;5088432;28;20506;-66
2022/10/22 07:28:59;;;;;;;8.20;4.10;;;;;;;17.43;65.45;101042.72;5080704;28;20063;-69
2022/10/22 07:31:26;;;;;;;11.63;4.22;;;;;;;17.46;65.10;101045.13;5068681;28;20395;-69
2022/10/22 07:33:52;;;;;;;9.73;3.80;;;;;;;17.50;65.03;101046.56;5068284;28;20095;-70
2022/10/22 07:36:19;;;;;;;5.70;3.22;;;;;;;17.52;65.45;101049.97;5077663;28;20044;-69
2022/10/22 07:38:48;;;;;;;10.50;3.67;;;;;;;17.56;65.41;101053.25;5089623;28;20102;-69
2022/10/22 07:41:15;;;;;;;7.13;3.30;;;;;;;17.58;65.31;101053.94;5088576;28;20090;-69
2022/10/22 07:43:42;;;;;;;9.43;3.58;;;;;;;17.62;64.97;101055.38;5087579;28;20449;-69
2022/10/22 07:46:12;;;;;;;7.70;3.50;;;;;;;17.65;65.43;101061.34;5088159;28;20041;-69
2022/10/22 07:48:39;;;;;;;11.65;4.18;;;;;;;17.71;65.30;101062.66;5071973;28;20052;-68
2022/10/22 07:51:05;;;;;;;12.13;3.80;;;;;;;17.75;65.16;101062.19;5069697;28;20044;-68
2022/10/22 07:53:32;;;;;;;12.25;3.58;;;;;;;17.78;65.05;101070.03;5068748;28;20102;-68
2022/10/22 07:56:00;;;;;;;10.30;3.40;;;;;;;17.82;64.97;101075.19;5068143;28;20445;-68
2022/10/22 07:58:27;;;;;;;11.73;3.65;;;;;;;17.84;64.96;101074.06;5066568;28;20044;-68
2022/10/22 08:00:55;;;;;;;7.20;2.90;;;;;;;17.85;64.71;101072.19;5067747;28;20053;-67
2022/10/22 08:03:21;;;;;;;14.05;3.17;;;;;;;17.85;65.08;101078.47;5067184;28;20041;-68
2022/10/22 08:05:51;;;;;;;10.55;3.28;;;;;;;17.86;64.75;101082.06;5066325;28;20053;-69
2022/10/22 08:08:18;;;;;;;7.75;2.92;;;;;;;17.89;64.89;101082.59;5066291;28;20041;-67
2022/10/22 08:10:47;;;;;;;7.07;2.97;;;;;;;17.94;64.51;101076.72;5065540;28;20081;-68
2022/10/22 08:13:14;;;;;;;9.05;3.10;;;;;;;17.99;65.11;101080.69;5065521;28;20106;-68
2022/10/22 08:15:42;;;;;;;17.33;3.22;;;;;;;18.05;65.35;101085.53;5069989;28;20043;-68
2022/10/22 08:18:13;;;;;;;5.75;2.97;;;;;;;18.13;65.14;101089.34;5085742;28;20044;-68
2022/10/22 08:20:40;;;;;;;7.32;3.15;;;;;;;18.22;65.32;101091.16;5067867;28;20068;-67
2022/10/22 08:23:07;;;;;;;10.32;2.83;;;;;;;18.34;65.76;101092.66;5087596;28;20059;-68
2022/10/22 08:25:34;;;;;;;5.95;2.50;;;;;;;18.47;65.66;101092.28;5087384;28;20068;-68
2022/10/22 08:28:00;;;;;;;7.38;2.58;;;;;;;18.57;65.39;101088.47;5056229;28;20102;-68
2022/10/22 08:30:28;;;;;;;11.35;3.20;;;;;;;18.71;65.24;101096.16;5073861;28;20036;-67
2022/10/22 08:32:55;;;;;;;6.35;2.50;;;;;;;18.84;65.27;101105.78;5073625;28;20508;-68
2022/10/22 08:35:22;;;;;;;5.53;2.20;;;;;;;18.93;64.91;101094.81;5073678;28;20299;-68
2022/10/22 08:37:48;;;;;;;5.47;2.38;;;;;;;19.04;64.67;101101.88;5055822;28;20449;-68
2022/10/22 08:40:24;;;;;;;6.10;2.65;;;;;;;19.14;64.48;101096.34;5073883;28;20090;-68
2022/10/22 08:43:10;;;;;;;12.68;3.03;;;;;;;19.25;64.52;101104.25;5073566;28;20402;-68
2022/10/22 08:45:42;;;;;;;8.27;2.60;;;;;;;19.35;64.30;101108.63;5073830;28;20049;-67
2022/10/22 08:48:41;;;;;;;7.60;2.63;;;;;;;19.50;64.16;101116.22;5073666;28;20506;-67
2022/10/22 08:51:17;;;;;;;9.90;2.80;;;;;;;19.64;64.14;101116.50;5073498;28;20075;-67
2022/10/22 08:54:10;;;;;;;9.38;2.75;;;;;;;19.77;63.94;101117.94;5073333;28;20052;-67
2022/10/22 08:56:39;;;;;;;10.95;2.65;;;;;;;19.91;63.78;101131.81;5073172;28;20056;-68
2022/10/22 08:59:26;;;;;;;9.00;2.90;;;;;;;19.99;63.48;101133.72;5073379;28;20510;-68
2022/10/22 09:01:53;;;;;;;6.30;2.47;;;;;;;20.07;63.30;101125.59;5073289;28;20060;-67
2022/10/22 09:04:31;;;;;;;7.38;2.28;;;;;;;20.10;62.92;101129.88;5055039;28;20040;-67
2022/10/22 09:06:59;;;;;;;11.10;2.42;;;;;;;20.11;62.66;101146.06;5073303;28;20040;-67
2022/10/22 09:09:30;;;;;;;7.22;2.50;;;;;;;20.13;62.83;101149.50;5073136;28;20053;-68
2022/10/22 09:11:59;;;;;;;7.78;2.70;;;;;;;20.16;62.40;101154.63;5072992;28;20422;-67
2022/10/22 09:14:30;;;;;;;9.95;2.53;;;;;;;20.19;62.22;101145.25;5073176;28;20036;-68
2022/10/22 09:17:35;;;;;;;5.38;2.13;;;;;;;20.17;62.40;101158.19;5051648;28;20115;-67
2022/10/22 09:20:25;;;;;;;7.60;2.20;;;;;;;20.18;62.16;101159.91;5069110;28;20048;-67
2022/10/22 09:23:02;;;;;;;9.07;2.70;;;;;;;20.17;61.94;101153.59;5038371;28;20053;-67
2022/10/22 09:25:32;;;;;;;7.45;2.20;;;;;;;20.13;62.03;101157.66;5072800;28;20049;-67
2022/10/22 09:27:59;;;;;;;8.57;2.20;;;;;;;20.13;61.80;101157.66;5054920;28;20098;-67
2022/10/22 09:30:34;;;;;;;9.15;2.45;;;;;;;20.11;61.62;101165.16;5072751;28;20054;-67
2022/10/22 09:33:05;;;;;;;;;;;;;;;20.11;61.55;101158.84;5073138;28;20040;-68
2022/10/22 09:35:42;;;;;;;8.60;2.25;;;;;;;20.12;61.71;101169.59;5072834;28;19963;-68
2022/10/22 09:38:13;;;;;;;8.20;2.53;;;;;;;20.09;61.40;101180.84;5071787;28;20045;-67
2022/10/22 09:40:46;;;;;;;6.40;2.00;;;;;;;20.08;61.41;101172.81;5055127;28;20482;-68
2022/10/22 09:43:13;;;;;;;7.28;2.22;;;;;;;20.07;61.53;101182.00;5072335;28;20045;-67
2022/10/22 09:45:45;;;;;;;9.63;2.67;;;;;;;20.08;61.57;101187.31;5081189;28;20560;-68
2022/10/22 09:48:29;;;;;;;10.00;2.53;;;;;;;20.07;61.48;101185.59;5074254;28;20056;-67
2022/10/22 09:51:05;;;;;;;10.27;2.30;;;;;;;20.08;61.82;101190.03;5072946;28;20557;-66
2022/10/22 09:53:37;;;;;;;11.52;2.63;;;;;;;20.08;61.29;101195.47;5072927;28;20044;-67
2022/10/22 09:56:19;;;;;;;9.27;2.50;;;;;;;20.07;61.40;101192.91;5073945;28;20041;-67
2022/10/22 09:58:49;;;;;;;10.38;2.80;;;;;;;20.05;61.45;101197.66;5072912;28;20563;-66
2022/10/22 10:01:26;;;;;;;7.63;2.45;;;;;;;20.02;61.44;101200.69;5072852;28;20040;-66
2022/10/22 10:03:53;;;;;;;7.95;2.38;;;;;;;20.01;61.08;101208.03;5072651;28;20094;-67
2022/10/22 10:06:21;;;;;;;12.60;2.45;;;;;;;20.02;61.01;101211.59;5055197;28;20371;-67
2022/10/22 10:08:49;;;;;;;11.38;3.20;;;;;;;20.05;61.26;101208.56;5069838;28;20073;-67
2022/10/22 10:11:27;;;;;;;10.00;2.53;;;;;;;20.08;61.42;101217.28;5092644;28;20075;-67
2022/10/22 10:14:19;;;;;;;6.53;2.42;;;;;;;20.10;61.50;101226.16;5091885;28;20043;-68
2022/10/22 10:16:54;;;;;;;8.73;2.50;;;;;;;20.17;61.49;101229.97;5072551;28;20056;-66
2022/10/22 10:19:55;;;;;;;10.55;2.92;;;;;;;20.21;61.46;101231.34;5054342;28;20105;-66
2022/10/22 10:22:39;;;;;;;6.50;2.45;;;;;;;20.29;61.38;101234.13;5072144;28;20048;-67
2022/10/22 10:25:41;;;;;;;9.02;2.53;;;;;;;20.30;61.46;101238.56;5060801;28;20462;-67
2022/10/22 10:28:35;;;;;;;10.85;2.85;;;;;;;20.35;61.53;101242.66;5052445;28;20099;-66
2022/10/22 10:31:25;;;;;;;6.85;2.05;;;;;;;20.39;61.18;101239.47;5051744;28;20045;-66
2022/10/22 10:34:08;;;;;;;8.75;1.90;;;;;;;20.45;61.36;101240.69;5044346;28;20106;-67
2022/10/22 10:37:03;;;;;;;11.30;2.85;;;;;;;20.48;61.23;101245.81;5071999;28;20090;-66
2022/10/22 10:39:51;;;;;;;8.30;1.83;;;;;;;20.52;61.31;101252.66;5060000;28;20091;-66
2022/10/22 10:42:39;;;;;;;8.98;2.30;;;;;;;20.52;60.71;101253.53;5052206;28;20048;-66
2022/10/22 10:45:18;;;;;;;5.63;1.80;;;;;;;20.54;60.66;101258.81;5052757;28;20041;-66
2022/10/22 10:48:26;;;;;;;6.97;1.80;;;;;;;20.56;60.79;101254.91;5051611;28;20040;-65
2022/10/22 10:51:21;;;;;;;7.70;2.10;;;;;;;20.57;60.80;101259.34;5050954;28;20037;-67
2022/10/22 10:54:09;;;;;;;9.60;2.38;;;;;;;20.59;60.57;101257.31;5030213;28;20087;-67
2022/10/22 10:57:17;;;;;;;10.73;2.85;;;;;;;20.63;60.80;101252.38;5061325;28;20048;-66
2022/10/22 10:59:49;;;;;;;8.52;2.22;;;;;;;20.68;60.85;101252.72;4992393;28;20072;-67
2022/10/22 11:02:33;;;;;;;7.82;2.08;;;;;;;20.72;60.50;101259.56;5060868;28;20102;-67
2022/10/22 11:05:31;;;;;;;8.88;2.20;;;;;;;20.78;60.37;101255.31;5062565;28;20102;-67
2022/10/22 11:08:17;;;;;;;6.35;2.13;;;;;;;20.88;60.57;101258.81;5055976;28;20090;-67
2022/10/22 11:10:48;;;;;;;10.48;2.25;;;;;;;20.98;60.67;101253.19;5060451;28;20036;-67
2022/10/22 11:13:23;;;;;;;9.02;2.67;;;;;;;21.06;60.44;101261.41;5064048;28;20479;-67
2022/10/22 11:16:29;;;;;;;6.15;2.05;;;;;;;21.17;60.31;101258.38;5071567;28;20087;-67
2022/10/22 11:19:06;;;;;;;8.30;2.28;;;;;;;21.28;60.07;101258.06;5070570;28;20054;-67
2022/10/22 11:21:41;;;;;;;7.60;2.67;;;;;;;21.39;59.71;101257.75;5091236;28;20090;-67
2022/10/22 11:24:34;;;;;;;5.03;1.80;;;;;;;21.52;59.59;101259.97;5090160;28;20044;-66
2022/10/22 11:27:27;;;;;;;9.40;2.10;;;;;;;21.63;59.58;101264.28;5091470;28;20486;-67
2022/10/22 11:30:01;;;;;;;7.20;2.17;;;;;;;21.72;59.22;101266.84;5092519;28;20437;-67
2022/10/22 11:32:30;;;;;;;8.25;2.50;;;;;;;21.79;58.96;101264.28;5074155;28;20109;-67
2022/10/22 11:35:04;;;;;;;8.85;2.42;;;;;;;21.89;59.00;101252.13;5074519;28;20078;-67
2022/10/22 11:37:34;;;;;;;4.95;1.80;;;;;;;22.01;58.80;101260.81;5057019;28;20056;-68
2022/10/22 11:40:17;;;;;;;7.30;2.17;;;;;;;22.14;58.76;101258.44;5054780;28;20037;-67
2022/10/22 11:42:48;;;;;;;6.28;2.10;;;;;;;22.24;58.42;101260.13;5090602;28;20498;-67
2022/10/22 11:45:17;;;;;;;10.00;2.42;;;;;;;22.28;58.03;101259.59;5092716;28;20548;-69
2022/10/22 11:47:57;;;;;;;7.07;2.10;;;;;;;22.34;57.89;101264.41;5092206;28;20052;-67
2022/10/22 11:50:42;;;;;;;9.25;2.17;;;;;;;22.38;57.39;101253.97;5074188;28;20052;-68